MET: Información y Pronóstico Aeronáutico

///////////////////////////////////////////////////////////////////////////////////////////////////////////////////////////////////////////////////////////////////////////////////////////////////////////////////////////////////////////////

Member for

1 año 10 meses
Enviado por meteorologia el Jue, 23/11/2017 - 11:39
4/7

Estacion AEROPARQUE J. NEWBERY
04 - 17:00 TAF SABE 041700Z 0418/0518 10010KT 9999 SCT010 TX14/0518Z TN11/0510Z BECMG 0419/0421 CAVOK BECMG 0507/0509 6000 BKN010 TEMPO 0509/0512 3000 BR BKN005 OVC010 BECMG 0512/0515 12020KT 9999 OVC015 =
Estacion BAHIA BLANCA
04 - 17:00 TAF SAZB 041700Z 0418/0518 34015KT CAVOK TX18/0518Z TN06/0511Z TEMPO 0423/0505 34015G25KT =
Estacion BARILOCHE
04 - 17:00 TAF SAZS 041700Z 0418/0518 29020KT CAVOK TX12/0419Z TN01/0511Z BECMG 0508/0512 BKN020 OVC060 TEMPO 0512/0518 29020G30KT =
Estacion CATAMARCA
04 - 17:00 TAF SANC 041700Z 0418/0518 14005KT 9999 OVC020 TX20/0518Z TN07/0510Z BECMG 0423/0502 36005KT 5000 DZ OVC025 BECMG 0505/0508 9999 BKN040 NSW SCT050 =
Estacion CHAPELCO
04 - 17:00 TAF SAZY 041700Z 0418/0518 27015KT CAVOK TX10/0419Z TN00/0511Z BECMG 0509/0512 22010KT 9999 BKN010 BECMG 0512/0515 CAVOK =
Estacion COMODORO RIVADAVIA
04 - 17:00 TAF SAVC 041700Z 0418/0518 34015KT 9999 FEW040 BKN200 TX18/0418Z TN12/0511Z BECMG 0506/0508 34020G35KT CAVOK BECMG 0512/0514 02015KT =
Estacion CORDOBA
04 - 17:00 TAF SACO 041700Z 0418/0518 18005KT 9999 SCT030 BKN060 TX18/0518Z TN07/0510Z BECMG 0500/0503 3000 DZ OVC015 BECMG 0513/0516 18010KT 9999 NSW SCT040 =
Estacion CORRIENTES
04 - 17:00 TAF SARC 041700Z 0418/0518 NIL =
Estacion EL CALAFATE
04 - 17:00 TAF SAWC 041700Z 0418/0518 29015KT 9999 FEW035 TX13/0418Z TN00/0511Z BECMG 0421/0423 VRB05KT SCT010 BKN030 BECMG 0503/0505 9999 -RA BKN020 OVC040 BECMG 0509/0511 CAVOK =
Estacion EL PALOMAR
04 - 17:00 TAF SADP 041700Z 0418/0518 07005KT CAVOK TX18/0518Z TN07/0511Z BECMG 0506/0509 5000 BR SCT010 TEMPO 0509/0512 0800 FG BECMG 0512/0515 14010KT BKN010 =
Estacion ESQUEL
04 - 17:00 TAF SAVE 041700Z 0418/0518 29015KT 9999 SCT035 SCT070 TX14/0418Z TN05/0511Z TEMPO 0418/0422 30015G25KT =
Estacion EZEIZA
04 - 17:00 TAF SAEZ 041700Z 0418/0518 07005KT CAVOK TX18/0518Z TN07/0511Z BECMG 0506/0509 5000 BR SCT010 TEMPO 0509/0512 0800 FG BECMG 0512/0515 14010KT 3000 BR BKN010 =
Estacion FORMOSA
04 - 17:00 TAF SARF 041700Z 0418/0518 18005KT 1200 DZ BR OVC010 TX18/0419Z TN12/0510Z BECMG 0419/0421 3000 TSRA OVC010 FEW050CB BKN050 BECMG 0510/0512 23015KT 9999 BKN020 =
Estacion IGUAZU/CATARATAS
04 - 17:00 TAF SARI 041700Z 0418/0518 11005KT 8000 -RA BKN012 OVC040 TX21/0419Z TN14/0510Z BECMG 0419/0421 3000 TSRA BKN010 BKN050 FEW050CB =
Estacion JUJUY
04 - 17:00 TAF SASJ 041700Z 0418/0518 14005KT 9999 SCT020 OVC060 TX17/0516Z TN08/0510Z BECMG 0421/05000 23005KT 5000 -RA OVC015 BECMG 0514/0517 05005KT 9999 NSC SCT030 =
Estacion LA RIOJA
04 - 17:00 TAF SANL 041700Z 0418/0518 18005KT 9999 SCT030 OVC050 TX22/0518Z TN07/0510Z BECMG 0423/0502 36005KT 5000 DZ OVC015 BECMG 0509/0512 23005KT 9999 SCT040 NSW SCT030 =
Estacion MAR DEL PLATA
04 - 17:00 TAF SAZM 041700Z 0418/0518 34010KT CAVOK TX15/0518Z TN04/0510Z BECMG 0503/0506 VRB03KT 5000 BR NSC BECMG 0513/0516 02010KT CAVOK =
Estacion MENDOZA
04 - 17:00 TAF SAME 041700Z 0418/0518 05005KT 9999 SCT040 SCT100 TX14/0420Z TN01/0510Z =
Estacion NEUQUEN
04 - 17:00 TAF SAZN 041700Z 0418/0518 29005KT 9999 SCT030 TX12/0518Z TN00/0511Z BECMG 0421/0423 CAVOK =
Estacion PARANA
04 - 17:00 TAF SAAP 041700Z 0418/0518 12010KT 9999 BKN030 TX18/0419Z TN10/0511Z BECMG 0503/0506 18010KT BECMG 0509/0512 5000 DZ BKN020 OVC040 BECMG 0512/0514 21015KT 3000 RA BKN010 OVC030 =
Estacion POSADAS
04 - 17:00 TAF SARP 041700Z 0418/0518 05005KT 9999 OVC020 TX21/0419Z TN12/0510Z BECMG 0419/0421 3000 TSRA OVC020 FEW050CB BKN050 BECMG 0510/0511 25015KT 2000 RA OVC007 BECMG 0516/0518 27005KT 9999 BKN010 =
Estacion RESISTENCIA
04 - 17:00 TAF SARE 041700Z 0418/0518 14005KT 9999 SCT038 BKN045 TX18/0419Z TN12/0510Z BECMG 0421/0423 22010KT 5000 TSRA OVC020 FEW050CB BECMG 0510/0512 23015G30KT 9999 BKN015 =
Estacion RIO CUARTO
04 - 17:00 TAF SAOC 041700Z 0418/0518 14010KT 9999 SCT030 BKN060 TX17/0418Z TN02/0511Z BECMG 0500/0503 35005KTKT 9999 BKN030 BECMG 0513/0516 20010KT 9999 SCT020 =
Estacion RIO GALLEGOS
04 - 17:00 TAF SAWG 041700Z 0418/0518 27010KT CAVOK TX12/0418Z TN04/0511Z BECMG 0420/0422 34020KT 9999 SCT030 SCT100 BECMG 0509/0511 32010KT CAVOK =
Estacion RIO GRANDE
04 - 17:00 TAF SAWE 041700Z 0418/0518 29020KT CAVOK TX10/0418Z TN03/0511Z BECMG 0500/0502 34020G30KT 9999 SCT030 BKN040 BECMG 0509/0511 32015KT =
Estacion ROSARIO
04 - 17:00 TAF SAAR 041700Z 0418/0518 12005KT 9999 SCT040 TX17/0419Z TN05/0510Z BECMG 0419/0421 CAVOK BECMG 0506/0509 18010KT BKN015 BECMG 0512/0515 18015KT BKN020 OVC050 TEMPO 0515/0518 8000 -RADZ =
Estacion SALTA
04 - 17:00 TAF SASA 041700Z 0418/0518 VRB05KT 9999 BKN020 OVC050 TX16/0518Z TN05/0510Z BECMG 0500/0503 34005KT 2000 DZ OVC008 BECMG 0514/0517 02005KT 9999 NSW BKN020 =
Estacion SAN FERNANDO
04 - 17:00 TAF SADF 071700Z 0418/0518 09010KT CAVOK TX17/0518Z TN09/0511Z BECMG 0423/0501 5000 BR NSC BECMG 0503/0505 1000 BR BKN008 BECMG 0512/0514 14015KT 9999 BKN015 BKN020 =
Estacion SAN JUAN
04 - 17:00 TAF SANU 041700Z 0418/0518 36010KT 9999 SCT040 SCT100 TX15/0420Z TN00/0510Z =
Estacion SAN LUIS
04 - 17:00 TAF SAOU 041700Z 0418/0518 32010KT 9999 SCT030 SCT100 TX14/0419Z TN03/0509Z =
Estacion SAN RAFAEL
04 - 17:00 TAF SAMR 041700Z 0418/0518 36010KT 9999 FEW040 TX15/0420Z TNM01/0510Z =
Estacion SANTA ROSA
04 - 17:00 TAF SAZR 041700Z 0418/0518 36015KT CAVOK TX19/0518Z TN05/0511Z BECMG 0506/0509 36005KT =
Estacion SANTIAGO DEL ESTERO
04 - 17:00 TAF SANE 041700Z 0418/0518 20010KT 9999 SCT030 BKN060 TX19/0518Z TN09/0510Z BECMG 0423/0502 5000 RA OVC020 BECMG 0513/0516 20010KT 9999 NSW SCT040 =
Estacion SAUCE VIEJO
04 - 17:00 TAF SAAV 041700Z 0418/0518 16010KT 9999 BKN030 TX18/0419Z TN10/0511Z BECMG 0509/0512 5000 DZ BKN020 OVC040 BECMG 0512/0514 21015KT 3000 RA BKN010 OVC030 =
Estacion TERMAS DE RIO HONDO
04 - 17:00 TAF SANR 041700Z 0418/0518 NIL =
Estacion TRELEW
04 - 17:00 TAF SAVT 041700Z 0418/0518 29015KT CAVOK TX20/0418Z TN05/0511Z =
Estacion TUCUMAN
04 - 17:00 TAF SANT 041700Z 0418/0518 23005KT 6000 FU SCT025 OVC040 TX18/0518Z TN08/0510Z BECMG 0500/0503 1200 DZ OVC008 BECMG 0513/0516 VRB03KT 7000 FU SCT040 =
Estacion USHUAIA
04 - 17:00 TAF SAWH 041700Z 0418/0518 34002KT 9999 SCT040 SCT100 TX11/0418Z TN04/0511Z BECMG 0500/0502 34010KT SCT030 BKN070 =
Estacion VIEDMA
04 - 17:00 TAF SAVV 041700Z 0418/0518 32020KT CAVOK TX15/0418Z TN07/0510Z BECMG 0503/0505 34015KT =